sensor_id;sensor_type;location;lat;lon;timestamp;P1;durP1;ratioP1;P2;durP2;ratioP2
8183;SDS011;4133;48.752;9.088;2023-12-14T00:00:15;1.10;;;1.10;;
8183;SDS011;4133;48.752;9.088;2023-12-14T00:02:41;1.13;;;1.00;;
8183;SDS011;4133;48.752;9.088;2023-12-14T00:05:07;0.70;;;0.70;;
8183;SDS011;4133;48.752;9.088;2023-12-14T00:07:33;0.53;;;0.53;;
8183;SDS011;4133;48.752;9.088;2023-12-14T00:09:59;0.97;;;0.97;;
8183;SDS011;4133;48.752;9.088;2023-12-14T00:12:25;0.77;;;0.77;;
8183;SDS011;4133;48.752;9.088;2023-12-14T00:14:51;1.10;;;1.00;;
8183;SDS011;4133;48.752;9.088;2023-12-14T00:17:17;1.87;;;1.60;;
8183;SDS011;4133;48.752;9.088;2023-12-14T00:19:43;4.07;;;1.90;;
8183;SDS011;4133;48.752;9.088;2023-12-14T00:22:09;1.87;;;1.63;;
8183;SDS011;4133;48.752;9.088;2023-12-14T00:24:35;1.30;;;1.20;;
8183;SDS011;4133;48.752;9.088;2023-12-14T00:27:01;2.20;;;1.80;;
8183;SDS011;4133;48.752;9.088;2023-12-14T00:29:29;3.37;;;2.40;;
8183;SDS011;4133;48.752;9.088;2023-12-14T00:31:55;4.13;;;2.57;;
8183;SDS011;4133;48.752;9.088;2023-12-14T00:34:21;2.10;;;1.87;;
8183;SDS011;4133;48.752;9.088;2023-12-14T00:36:47;3.63;;;1.70;;
8183;SDS011;4133;48.752;9.088;2023-12-14T00:39:13;3.37;;;2.30;;
8183;SDS011;4133;48.752;9.088;2023-12-14T00:41:39;1.77;;;1.30;;
8183;SDS011;4133;48.752;9.088;2023-12-14T00:44:05;1.50;;;1.40;;
8183;SDS011;4133;48.752;9.088;2023-12-14T00:46:31;3.57;;;1.30;;
8183;SDS011;4133;48.752;9.088;2023-12-14T00:48:57;1.20;;;1.10;;
8183;SDS011;4133;48.752;9.088;2023-12-14T00:51:23;1.07;;;1.00;;
8183;SDS011;4133;48.752;9.088;2023-12-14T00:53:49;1.10;;;1.00;;
8183;SDS011;4133;48.752;9.088;2023-12-14T00:56:15;0.90;;;0.90;;
8183;SDS011;4133;48.752;9.088;2023-12-14T00:58:41;1.10;;;1.00;;
8183;SDS011;4133;48.752;9.088;2023-12-14T01:01:07;1.40;;;1.30;;
8183;SDS011;4133;48.752;9.088;2023-12-14T01:03:33;2.70;;;1.50;;
8183;SDS011;4133;48.752;9.088;2023-12-14T01:05:59;2.23;;;1.30;;
8183;SDS011;4133;48.752;9.088;2023-12-14T01:08:25;1.63;;;1.40;;
8183;SDS011;4133;48.752;9.088;2023-12-14T01:10:51;1.20;;;1.00;;
8183;SDS011;4133;48.752;9.088;2023-12-14T01:13:17;0.90;;;0.90;;
8183;SDS011;4133;48.752;9.088;2023-12-14T01:15:43;1.10;;;1.00;;
8183;SDS011;4133;48.752;9.088;2023-12-14T01:18:09;0.90;;;0.90;;
8183;SDS011;4133;48.752;9.088;2023-12-14T01:20:35;0.90;;;0.90;;
8183;SDS011;4133;48.752;9.088;2023-12-14T01:23:01;0.70;;;0.70;;
8183;SDS011;4133;48.752;9.088;2023-12-14T01:25:27;0.90;;;0.90;;
8183;SDS011;4133;48.752;9.088;2023-12-14T01:27:52;0.70;;;0.70;;
8183;SDS011;4133;48.752;9.088;2023-12-14T01:30:18;0.80;;;0.80;;
8183;SDS011;4133;48.752;9.088;2023-12-14T01:32:44;1.70;;;1.60;;
8183;SDS011;4133;48.752;9.088;2023-12-14T01:35:10;2.47;;;1.97;;
8183;SDS011;4133;48.752;9.088;2023-12-14T01:37:36;1.87;;;1.30;;
8183;SDS011;4133;48.752;9.088;2023-12-14T01:40:02;3.10;;;1.10;;
8183;SDS011;4133;48.752;9.088;2023-12-14T01:42:29;1.53;;;1.03;;
8183;SDS011;4133;48.752;9.088;2023-12-14T01:44:55;2.50;;;1.10;;
8183;SDS011;4133;48.752;9.088;2023-12-14T01:47:21;1.30;;;1.20;;
8183;SDS011;4133;48.752;9.088;2023-12-14T01:49:47;1.30;;;1.20;;
8183;SDS011;4133;48.752;9.088;2023-12-14T01:52:13;1.30;;;1.20;;
8183;SDS011;4133;48.752;9.088;2023-12-14T01:54:40;1.17;;;1.07;;
8183;SDS011;4133;48.752;9.088;2023-12-14T01:57:06;0.93;;;0.93;;
8183;SDS011;4133;48.752;9.088;2023-12-14T01:59:32;1.33;;;1.23;;
8183;SDS011;4133;48.752;9.088;2023-12-14T02:01:58;0.97;;;0.97;;
8183;SDS011;4133;48.752;9.088;2023-12-14T02:04:24;1.00;;;1.00;;
8183;SDS011;4133;48.752;9.088;2023-12-14T02:06:50;1.00;;;1.00;;
8183;SDS011;4133;48.752;9.088;2023-12-14T02:09:16;1.00;;;1.00;;
8183;SDS011;4133;48.752;9.088;2023-12-14T02:11:42;2.83;;;0.97;;
8183;SDS011;4133;48.752;9.088;2023-12-14T02:14:09;1.00;;;0.87;;
8183;SDS011;4133;48.752;9.088;2023-12-14T02:16:35;0.80;;;0.80;;
8183;SDS011;4133;48.752;9.088;2023-12-14T02:19:03;0.80;;;0.80;;
8183;SDS011;4133;48.752;9.088;2023-12-14T02:21:29;0.80;;;0.80;;
8183;SDS011;4133;48.752;9.088;2023-12-14T02:23:55;0.93;;;0.93;;
8183;SDS011;4133;48.752;9.088;2023-12-14T02:26:21;1.20;;;1.10;;
8183;SDS011;4133;48.752;9.088;2023-12-14T02:28:47;1.07;;;1.00;;
8183;SDS011;4133;48.752;9.088;2023-12-14T02:31:13;0.80;;;0.80;;
8183;SDS011;4133;48.752;9.088;2023-12-14T02:33:39;0.70;;;0.70;;
8183;SDS011;4133;48.752;9.088;2023-12-14T02:36:05;1.10;;;1.00;;
8183;SDS011;4133;48.752;9.088;2023-12-14T02:38:31;0.93;;;0.90;;
8183;SDS011;4133;48.752;9.088;2023-12-14T02:40:58;0.87;;;0.87;;
8183;SDS011;4133;48.752;9.088;2023-12-14T02:43:24;1.90;;;0.93;;
8183;SDS011;4133;48.752;9.088;2023-12-14T02:45:50;0.77;;;0.77;;
8183;SDS011;4133;48.752;9.088;2023-12-14T02:48:17;1.27;;;0.90;;
8183;SDS011;4133;48.752;9.088;2023-12-14T02:50:43;1.03;;;0.87;;
8183;SDS011;4133;48.752;9.088;2023-12-14T02:53:09;0.87;;;0.87;;
8183;SDS011;4133;48.752;9.088;2023-12-14T02:55:35;1.43;;;0.90;;
8183;SDS011;4133;48.752;9.088;2023-12-14T02:58:01;2.00;;;0.97;;
8183;SDS011;4133;48.752;9.088;2023-12-14T03:00:27;0.90;;;0.90;;
8183;SDS011;4133;48.752;9.088;2023-12-14T03:02:53;0.80;;;0.80;;
8183;SDS011;4133;48.752;9.088;2023-12-14T03:05:19;0.93;;;0.93;;
8183;SDS011;4133;48.752;9.088;2023-12-14T03:07:45;0.87;;;0.87;;
8183;SDS011;4133;48.752;9.088;2023-12-14T03:10:11;0.90;;;0.90;;
8183;SDS011;4133;48.752;9.088;2023-12-14T03:12:37;0.90;;;0.90;;
8183;SDS011;4133;48.752;9.088;2023-12-14T03:15:03;3.07;;;1.00;;
8183;SDS011;4133;48.752;9.088;2023-12-14T03:17:29;1.10;;;1.00;;
8183;SDS011;4133;48.752;9.088;2023-12-14T03:19:55;1.70;;;1.27;;
8183;SDS011;4133;48.752;9.088;2023-12-14T03:22:21;1.47;;;1.27;;
8183;SDS011;4133;48.752;9.088;2023-12-14T03:24:47;0.90;;;0.90;;
8183;SDS011;4133;48.752;9.088;2023-12-14T03:27:13;1.03;;;1.03;;
8183;SDS011;4133;48.752;9.088;2023-12-14T03:29:39;1.00;;;1.00;;
8183;SDS011;4133;48.752;9.088;2023-12-14T03:32:06;1.00;;;1.00;;
8183;SDS011;4133;48.752;9.088;2023-12-14T03:34:32;0.87;;;0.87;;
8183;SDS011;4133;48.752;9.088;2023-12-14T03:36:58;1.30;;;1.20;;
8183;SDS011;4133;48.752;9.088;2023-12-14T03:39:23;1.23;;;1.13;;
8183;SDS011;4133;48.752;9.088;2023-12-14T03:41:49;0.87;;;0.87;;
8183;SDS011;4133;48.752;9.088;2023-12-14T03:44:15;0.83;;;0.83;;
8183;SDS011;4133;48.752;9.088;2023-12-14T03:46:41;1.17;;;1.07;;
8183;SDS011;4133;48.752;9.088;2023-12-14T03:49:07;0.90;;;0.90;;
8183;SDS011;4133;48.752;9.088;2023-12-14T03:51:34;1.00;;;1.00;;
8183;SDS011;4133;48.752;9.088;2023-12-14T03:54:00;1.00;;;0.97;;
8183;SDS011;4133;48.752;9.088;2023-12-14T03:56:26;1.00;;;1.00;;
8183;SDS011;4133;48.752;9.088;2023-12-14T03:58:52;0.83;;;0.83;;
8183;SDS011;4133;48.752;9.088;2023-12-14T04:01:18;1.10;;;1.00;;
8183;SDS011;4133;48.752;9.088;2023-12-14T04:03:44;1.07;;;0.90;;
8183;SDS011;4133;48.752;9.088;2023-12-14T04:06:11;1.00;;;1.00;;
8183;SDS011;4133;48.752;9.088;2023-12-14T04:08:37;0.97;;;0.97;;
8183;SDS011;4133;48.752;9.088;2023-12-14T04:11:04;1.23;;;1.17;;
8183;SDS011;4133;48.752;9.088;2023-12-14T04:13:30;1.00;;;1.00;;
8183;SDS011;4133;48.752;9.088;2023-12-14T04:15:56;1.33;;;1.23;;
8183;SDS011;4133;48.752;9.088;2023-12-14T04:18:22;1.17;;;1.00;;
8183;SDS011;4133;48.752;9.088;2023-12-14T04:20:48;1.13;;;1.10;;
8183;SDS011;4133;48.752;9.088;2023-12-14T04:23:14;1.07;;;1.03;;
8183;SDS011;4133;48.752;9.088;2023-12-14T04:25:40;1.17;;;1.07;;
8183;SDS011;4133;48.752;9.088;2023-12-14T04:28:06;1.17;;;1.07;;
8183;SDS011;4133;48.752;9.088;2023-12-14T04:30:32;1.43;;;1.20;;
8183;SDS011;4133;48.752;9.088;2023-12-14T04:32:58;1.33;;;1.23;;
8183;SDS011;4133;48.752;9.088;2023-12-14T04:35:24;4.63;;;1.17;;
8183;SDS011;4133;48.752;9.088;2023-12-14T04:37:50;1.40;;;1.30;;
8183;SDS011;4133;48.752;9.088;2023-12-14T04:40:16;9.83;;;3.20;;
8183;SDS011;4133;48.752;9.088;2023-12-14T04:42:42;9.73;;;3.23;;
8183;SDS011;4133;48.752;9.088;2023-12-14T04:45:08;2.13;;;1.30;;
8183;SDS011;4133;48.752;9.088;2023-12-14T04:47:35;1.57;;;1.10;;
8183;SDS011;4133;48.752;9.088;2023-12-14T04:50:01;1.67;;;1.50;;
8183;SDS011;4133;48.752;9.088;2023-12-14T04:52:27;1.63;;;1.37;;
8183;SDS011;4133;48.752;9.088;2023-12-14T04:54:53;1.40;;;1.20;;
8183;SDS011;4133;48.752;9.088;2023-12-14T04:57:19;1.00;;;1.00;;
8183;SDS011;4133;48.752;9.088;2023-12-14T04:59:45;1.40;;;1.30;;
8183;SDS011;4133;48.752;9.088;2023-12-14T05:02:11;1.47;;;1.37;;
8183;SDS011;4133;48.752;9.088;2023-12-14T05:04:37;2.53;;;1.33;;
8183;SDS011;4133;48.752;9.088;2023-12-14T05:07:03;1.73;;;1.63;;
8183;SDS011;4133;48.752;9.088;2023-12-14T05:09:29;1.70;;;1.60;;
8183;SDS011;4133;48.752;9.088;2023-12-14T05:11:55;1.60;;;1.50;;
8183;SDS011;4133;48.752;9.088;2023-12-14T05:14:21;2.83;;;1.53;;
8183;SDS011;4133;48.752;9.088;2023-12-14T05:16:48;1.50;;;1.40;;
8183;SDS011;4133;48.752;9.088;2023-12-14T05:19:14;1.57;;;1.40;;
8183;SDS011;4133;48.752;9.088;2023-12-14T05:21:40;2.37;;;1.70;;
8183;SDS011;4133;48.752;9.088;2023-12-14T05:24:06;1.80;;;1.70;;
8183;SDS011;4133;48.752;9.088;2023-12-14T05:26:32;2.70;;;1.73;;
8183;SDS011;4133;48.752;9.088;2023-12-14T05:28:58;1.50;;;1.40;;
8183;SDS011;4133;48.752;9.088;2023-12-14T05:31:24;2.37;;;1.60;;
8183;SDS011;4133;48.752;9.088;2023-12-14T05:33:50;2.27;;;1.63;;
8183;SDS011;4133;48.752;9.088;2023-12-14T05:36:16;1.40;;;1.30;;
8183;SDS011;4133;48.752;9.088;2023-12-14T05:38:43;5.30;;;1.87;;
8183;SDS011;4133;48.752;9.088;2023-12-14T05:41:09;1.80;;;1.40;;
8183;SDS011;4133;48.752;9.088;2023-12-14T05:43:35;1.80;;;1.50;;
8183;SDS011;4133;48.752;9.088;2023-12-14T05:46:01;1.60;;;1.50;;
8183;SDS011;4133;48.752;9.088;2023-12-14T05:48:28;2.03;;;1.30;;
8183;SDS011;4133;48.752;9.088;2023-12-14T05:50:56;1.63;;;1.37;;
8183;SDS011;4133;48.752;9.088;2023-12-14T05:53:22;1.60;;;1.50;;
8183;SDS011;4133;48.752;9.088;2023-12-14T05:55:48;3.83;;;2.00;;
8183;SDS011;4133;48.752;9.088;2023-12-14T05:58:14;1.63;;;1.50;;
8183;SDS011;4133;48.752;9.088;2023-12-14T06:00:40;4.73;;;2.00;;
8183;SDS011;4133;48.752;9.088;2023-12-14T06:03:06;3.50;;;1.90;;
8183;SDS011;4133;48.752;9.088;2023-12-14T06:05:32;1.97;;;1.50;;
8183;SDS011;4133;48.752;9.088;2023-12-14T06:07:58;2.90;;;1.70;;
8183;SDS011;4133;48.752;9.088;2023-12-14T06:10:24;2.47;;;1.70;;
8183;SDS011;4133;48.752;9.088;2023-12-14T06:12:50;4.20;;;1.87;;
8183;SDS011;4133;48.752;9.088;2023-12-14T06:15:16;3.80;;;2.23;;
8183;SDS011;4133;48.752;9.088;2023-12-14T06:17:42;3.97;;;2.50;;
8183;SDS011;4133;48.752;9.088;2023-12-14T06:20:08;2.80;;;2.13;;
8183;SDS011;4133;48.752;9.088;2023-12-14T06:22:37;1.50;;;1.40;;
8183;SDS011;4133;48.752;9.088;2023-12-14T06:25:04;1.60;;;1.50;;
8183;SDS011;4133;48.752;9.088;2023-12-14T06:27:30;1.50;;;1.40;;
8183;SDS011;4133;48.752;9.088;2023-12-14T06:29:56;2.37;;;2.10;;
8183;SDS011;4133;48.752;9.088;2023-12-14T06:32:22;2.97;;;2.10;;
8183;SDS011;4133;48.752;9.088;2023-12-14T06:34:48;2.07;;;1.50;;
8183;SDS011;4133;48.752;9.088;2023-12-14T06:37:14;2.10;;;1.90;;
8183;SDS011;4133;48.752;9.088;2023-12-14T06:39:40;2.97;;;1.43;;
8183;SDS011;4133;48.752;9.088;2023-12-14T06:42:06;3.50;;;1.60;;
8183;SDS011;4133;48.752;9.088;2023-12-14T06:44:34;4.03;;;1.70;;
8183;SDS011;4133;48.752;9.088;2023-12-14T06:47:02;1.73;;;1.60;;
8183;SDS011;4133;48.752;9.088;2023-12-14T06:49:31;3.63;;;1.60;;
8183;SDS011;4133;48.752;9.088;2023-12-14T06:52:07;2.03;;;1.83;;
8183;SDS011;4133;48.752;9.088;2023-12-14T06:54:34;2.30;;;1.50;;
8183;SDS011;4133;48.752;9.088;2023-12-14T06:57:00;1.60;;;1.50;;
8183;SDS011;4133;48.752;9.088;2023-12-14T06:59:27;1.67;;;1.57;;
8183;SDS011;4133;48.752;9.088;2023-12-14T07:01:53;1.63;;;1.50;;
8183;SDS011;4133;48.752;9.088;2023-12-14T07:04:19;2.53;;;1.50;;
8183;SDS011;4133;48.752;9.088;2023-12-14T07:06:51;2.17;;;1.40;;
8183;SDS011;4133;48.752;9.088;2023-12-14T07:09:19;1.57;;;1.47;;
8183;SDS011;4133;48.752;9.088;2023-12-14T07:11:45;1.40;;;1.30;;
8183;SDS011;4133;48.752;9.088;2023-12-14T07:14:12;1.57;;;1.23;;
8183;SDS011;4133;48.752;9.088;2023-12-14T07:16:41;1.00;;;1.00;;
8183;SDS011;4133;48.752;9.088;2023-12-14T07:19:11;1.27;;;1.20;;
8183;SDS011;4133;48.752;9.088;2023-12-14T07:21:37;1.30;;;1.20;;
8183;SDS011;4133;48.752;9.088;2023-12-14T07:24:03;1.30;;;1.20;;
8183;SDS011;4133;48.752;9.088;2023-12-14T07:26:29;1.53;;;1.20;;
8183;SDS011;4133;48.752;9.088;2023-12-14T07:28:56;1.60;;;1.50;;
8183;SDS011;4133;48.752;9.088;2023-12-14T07:31:22;1.50;;;1.40;;
8183;SDS011;4133;48.752;9.088;2023-12-14T07:33:48;1.83;;;1.50;;
8183;SDS011;4133;48.752;9.088;2023-12-14T07:36:14;1.53;;;1.43;;
8183;SDS011;4133;48.752;9.088;2023-12-14T07:38:40;1.83;;;1.43;;
8183;SDS011;4133;48.752;9.088;2023-12-14T07:41:07;1.70;;;1.60;;
8183;SDS011;4133;48.752;9.088;2023-12-14T07:43:33;1.40;;;1.27;;
8183;SDS011;4133;48.752;9.088;2023-12-14T07:45:59;1.73;;;1.63;;
8183;SDS011;4133;48.752;9.088;2023-12-14T07:48:26;2.27;;;1.53;;
8183;SDS011;4133;48.752;9.088;2023-12-14T07:50:53;1.80;;;1.70;;
8183;SDS011;4133;48.752;9.088;2023-12-14T07:53:20;2.13;;;1.60;;
8183;SDS011;4133;48.752;9.088;2023-12-14T07:55:46;2.10;;;1.77;;
8183;SDS011;4133;48.752;9.088;2023-12-14T07:58:12;1.40;;;1.30;;
8183;SDS011;4133;48.752;9.088;2023-12-14T08:00:38;1.70;;;1.60;;
8183;SDS011;4133;48.752;9.088;2023-12-14T08:03:04;1.83;;;1.63;;
8183;SDS011;4133;48.752;9.088;2023-12-14T08:05:30;1.67;;;1.57;;
8183;SDS011;4133;48.752;9.088;2023-12-14T08:07:56;1.70;;;1.60;;
8183;SDS011;4133;48.752;9.088;2023-12-14T08:10:22;1.60;;;1.50;;
8183;SDS011;4133;48.752;9.088;2023-12-14T08:12:48;2.20;;;1.83;;
8183;SDS011;4133;48.752;9.088;2023-12-14T08:15:16;2.20;;;2.00;;
8183;SDS011;4133;48.752;9.088;2023-12-14T08:17:42;2.10;;;1.90;;
8183;SDS011;4133;48.752;9.088;2023-12-14T08:20:09;2.50;;;1.90;;
8183;SDS011;4133;48.752;9.088;2023-12-14T08:22:36;2.00;;;1.73;;
8183;SDS011;4133;48.752;9.088;2023-12-14T08:25:02;2.53;;;1.80;;
8183;SDS011;4133;48.752;9.088;2023-12-14T08:27:28;1.90;;;1.70;;
8183;SDS011;4133;48.752;9.088;2023-12-14T08:29:56;1.70;;;1.53;;
8183;SDS011;4133;48.752;9.088;2023-12-14T08:32:22;3.38;;;2.60;;
8183;SDS011;4133;48.752;9.088;2023-12-14T08:34:48;2.50;;;2.20;;
8183;SDS011;4133;48.752;9.088;2023-12-14T08:37:14;2.90;;;1.87;;
8183;SDS011;4133;48.752;9.088;2023-12-14T08:39:41;2.70;;;1.93;;
8183;SDS011;4133;48.752;9.088;2023-12-14T08:42:07;2.37;;;2.17;;
8183;SDS011;4133;48.752;9.088;2023-12-14T08:44:38;2.43;;;1.90;;
8183;SDS011;4133;48.752;9.088;2023-12-14T08:47:04;1.80;;;1.70;;
8183;SDS011;4133;48.752;9.088;2023-12-14T08:49:30;2.27;;;2.07;;
8183;SDS011;4133;48.752;9.088;2023-12-14T08:51:56;2.47;;;1.80;;
8183;SDS011;4133;48.752;9.088;2023-12-14T08:54:22;1.77;;;1.67;;
8183;SDS011;4133;48.752;9.088;2023-12-14T08:56:48;2.03;;;1.87;;
8183;SDS011;4133;48.752;9.088;2023-12-14T08:59:14;2.83;;;1.93;;
8183;SDS011;4133;48.752;9.088;2023-12-14T09:01:40;2.00;;;1.80;;
8183;SDS011;4133;48.752;9.088;2023-12-14T09:04:06;1.97;;;1.77;;
8183;SDS011;4133;48.752;9.088;2023-12-14T09:06:32;2.17;;;1.90;;
8183;SDS011;4133;48.752;9.088;2023-12-14T09:08:58;3.03;;;2.00;;
8183;SDS011;4133;48.752;9.088;2023-12-14T09:11:24;2.37;;;2.17;;
8183;SDS011;4133;48.752;9.088;2023-12-14T09:13:50;2.50;;;2.20;;
8183;SDS011;4133;48.752;9.088;2023-12-14T09:16:16;2.80;;;2.30;;
8183;SDS011;4133;48.752;9.088;2023-12-14T09:18:42;2.77;;;2.37;;
8183;SDS011;4133;48.752;9.088;2023-12-14T09:21:08;3.47;;;2.40;;
8183;SDS011;4133;48.752;9.088;2023-12-14T09:23:34;2.73;;;2.50;;
8183;SDS011;4133;48.752;9.088;2023-12-14T09:26:00;2.83;;;2.40;;
8183;SDS011;4133;48.752;9.088;2023-12-14T09:28:26;2.80;;;2.33;;
8183;SDS011;4133;48.752;9.088;2023-12-14T09:30:52;2.27;;;2.10;;
8183;SDS011;4133;48.752;9.088;2023-12-14T09:33:18;2.83;;;2.57;;
8183;SDS011;4133;48.752;9.088;2023-12-14T09:35:44;3.20;;;2.70;;
8183;SDS011;4133;48.752;9.088;2023-12-14T09:38:10;3.43;;;2.90;;
8183;SDS011;4133;48.752;9.088;2023-12-14T09:40:38;2.87;;;2.53;;
8183;SDS011;4133;48.752;9.088;2023-12-14T09:43:04;4.20;;;2.77;;
8183;SDS011;4133;48.752;9.088;2023-12-14T09:45:33;2.70;;;2.50;;
8183;SDS011;4133;48.752;9.088;2023-12-14T09:48:00;5.20;;;3.43;;
8183;SDS011;4133;48.752;9.088;2023-12-14T09:50:26;2.97;;;2.67;;
8183;SDS011;4133;48.752;9.088;2023-12-14T09:52:52;4.20;;;2.83;;
8183;SDS011;4133;48.752;9.088;2023-12-14T09:55:18;3.27;;;2.97;;
8183;SDS011;4133;48.752;9.088;2023-12-14T09:57:44;3.53;;;2.77;;
8183;SDS011;4133;48.752;9.088;2023-12-14T10:00:12;3.37;;;3.07;;
8183;SDS011;4133;48.752;9.088;2023-12-14T10:03:24;4.17;;;2.73;;
8183;SDS011;4133;48.752;9.088;2023-12-14T10:05:51;3.47;;;3.17;;
8183;SDS011;4133;48.752;9.088;2023-12-14T10:08:18;3.47;;;2.77;;
8183;SDS011;4133;48.752;9.088;2023-12-14T10:10:46;3.63;;;3.03;;
8183;SDS011;4133;48.752;9.088;2023-12-14T10:13:13;6.53;;;2.90;;
8183;SDS011;4133;48.752;9.088;2023-12-14T10:15:49;3.63;;;3.20;;
8183;SDS011;4133;48.752;9.088;2023-12-14T10:18:21;6.70;;;3.47;;
8183;SDS011;4133;48.752;9.088;2023-12-14T10:20:48;3.13;;;2.83;;
8183;SDS011;4133;48.752;9.088;2023-12-14T10:23:14;4.23;;;3.20;;
8183;SDS011;4133;48.752;9.088;2023-12-14T10:25:42;4.00;;;3.20;;
8183;SDS011;4133;48.752;9.088;2023-12-14T10:28:08;3.80;;;3.03;;
8183;SDS011;4133;48.752;9.088;2023-12-14T10:30:34;4.90;;;3.50;;
8183;SDS011;4133;48.752;9.088;2023-12-14T10:33:00;5.23;;;3.30;;
8183;SDS011;4133;48.752;9.088;2023-12-14T10:35:26;3.10;;;2.80;;
8183;SDS011;4133;48.752;9.088;2023-12-14T10:37:52;2.80;;;2.60;;
8183;SDS011;4133;48.752;9.088;2023-12-14T10:40:19;3.30;;;2.77;;
8183;SDS011;4133;48.752;9.088;2023-12-14T10:42:45;3.03;;;2.70;;
8183;SDS011;4133;48.752;9.088;2023-12-14T10:45:12;3.17;;;2.60;;
8183;SDS011;4133;48.752;9.088;2023-12-14T10:47:44;3.20;;;2.73;;
8183;SDS011;4133;48.752;9.088;2023-12-14T10:50:11;3.13;;;2.37;;
8183;SDS011;4133;48.752;9.088;2023-12-14T10:52:41;3.50;;;2.57;;
8183;SDS011;4133;48.752;9.088;2023-12-14T10:55:08;3.20;;;2.57;;
8183;SDS011;4133;48.752;9.088;2023-12-14T10:57:35;2.93;;;2.60;;
8183;SDS011;4133;48.752;9.088;2023-12-14T11:00:02;2.80;;;2.53;;
8183;SDS011;4133;48.752;9.088;2023-12-14T11:02:39;3.90;;;2.70;;
8183;SDS011;4133;48.752;9.088;2023-12-14T11:05:07;2.23;;;2.07;;
8183;SDS011;4133;48.752;9.088;2023-12-14T11:10:10;2.13;;;1.90;;
8183;SDS011;4133;48.752;9.088;2023-12-14T11:15:18;3.67;;;2.07;;
8183;SDS011;4133;48.752;9.088;2023-12-14T11:18:15;1.80;;;1.70;;
8183;SDS011;4133;48.752;9.088;2023-12-14T11:20:30;2.73;;;2.47;;
8183;SDS011;4133;48.752;9.088;2023-12-14T11:22:57;2.50;;;2.30;;
8183;SDS011;4133;48.752;9.088;2023-12-14T11:25:33;1.90;;;1.80;;
8183;SDS011;4133;48.752;9.088;2023-12-14T11:28:04;2.10;;;1.90;;
8183;SDS011;4133;48.752;9.088;2023-12-14T11:30:30;2.47;;;1.90;;
8183;SDS011;4133;48.752;9.088;2023-12-14T11:32:57;4.17;;;1.70;;
8183;SDS011;4133;48.752;9.088;2023-12-14T11:35:23;1.87;;;1.77;;
8183;SDS011;4133;48.752;9.088;2023-12-14T11:37:49;2.23;;;1.70;;
8183;SDS011;4133;48.752;9.088;2023-12-14T11:40:15;1.60;;;1.50;;
8183;SDS011;4133;48.752;9.088;2023-12-14T11:42:57;1.53;;;1.33;;
8183;SDS011;4133;48.752;9.088;2023-12-14T11:45:23;2.13;;;1.67;;
8183;SDS011;4133;48.752;9.088;2023-12-14T11:47:49;0.90;;;0.90;;
8183;SDS011;4133;48.752;9.088;2023-12-14T11:50:15;0.67;;;0.60;;
8183;SDS011;4133;48.752;9.088;2023-12-14T11:52:41;1.00;;;0.77;;
8183;SDS011;4133;48.752;9.088;2023-12-14T11:55:09;0.60;;;0.60;;
8183;SDS011;4133;48.752;9.088;2023-12-14T11:57:35;0.90;;;0.70;;
8183;SDS011;4133;48.752;9.088;2023-12-14T12:00:01;0.67;;;0.67;;
8183;SDS011;4133;48.752;9.088;2023-12-14T12:02:28;0.60;;;0.60;;
8183;SDS011;4133;48.752;9.088;2023-12-14T12:04:54;0.63;;;0.63;;
8183;SDS011;4133;48.752;9.088;2023-12-14T12:07:20;0.70;;;0.70;;
8183;SDS011;4133;48.752;9.088;2023-12-14T12:09:47;0.70;;;0.70;;
8183;SDS011;4133;48.752;9.088;2023-12-14T12:12:13;2.63;;;0.70;;
8183;SDS011;4133;48.752;9.088;2023-12-14T12:14:40;0.70;;;0.70;;
8183;SDS011;4133;48.752;9.088;2023-12-14T12:17:06;0.90;;;0.90;;
8183;SDS011;4133;48.752;9.088;2023-12-14T12:19:33;0.93;;;0.80;;
8183;SDS011;4133;48.752;9.088;2023-12-14T12:21:59;2.23;;;0.90;;
8183;SDS011;4133;48.752;9.088;2023-12-14T12:24:25;0.70;;;0.70;;
8183;SDS011;4133;48.752;9.088;2023-12-14T12:26:51;0.70;;;0.70;;
8183;SDS011;4133;48.752;9.088;2023-12-14T12:29:17;0.70;;;0.70;;
8183;SDS011;4133;48.752;9.088;2023-12-14T12:31:43;1.70;;;0.80;;
8183;SDS011;4133;48.752;9.088;2023-12-14T12:34:10;0.70;;;0.70;;
8183;SDS011;4133;48.752;9.088;2023-12-14T12:36:36;1.00;;;0.90;;
8183;SDS011;4133;48.752;9.088;2023-12-14T12:39:02;1.03;;;1.03;;
8183;SDS011;4133;48.752;9.088;2023-12-14T12:41:31;0.70;;;0.70;;
8183;SDS011;4133;48.752;9.088;2023-12-14T12:43:58;0.90;;;0.90;;
8183;SDS011;4133;48.752;9.088;2023-12-14T12:46:30;1.30;;;1.20;;
8183;SDS011;4133;48.752;9.088;2023-12-14T12:48:56;0.77;;;0.77;;
8183;SDS011;4133;48.752;9.088;2023-12-14T12:51:22;1.40;;;0.93;;
8183;SDS011;4133;48.752;9.088;2023-12-14T12:53:50;0.90;;;0.90;;
8183;SDS011;4133;48.752;9.088;2023-12-14T12:56:16;0.97;;;0.90;;
8183;SDS011;4133;48.752;9.088;2023-12-14T12:58:42;1.00;;;0.90;;
8183;SDS011;4133;48.752;9.088;2023-12-14T13:01:08;1.00;;;1.00;;
8183;SDS011;4133;48.752;9.088;2023-12-14T13:03:34;0.83;;;0.83;;
8183;SDS011;4133;48.752;9.088;2023-12-14T13:06:01;0.60;;;0.60;;
8183;SDS011;4133;48.752;9.088;2023-12-14T13:08:28;0.90;;;0.87;;
8183;SDS011;4133;48.752;9.088;2023-12-14T13:10:54;0.90;;;0.90;;
8183;SDS011;4133;48.752;9.088;2023-12-14T13:13:20;0.83;;;0.83;;
8183;SDS011;4133;48.752;9.088;2023-12-14T13:15:46;1.47;;;1.10;;
8183;SDS011;4133;48.752;9.088;2023-12-14T13:18:12;0.80;;;0.80;;
8183;SDS011;4133;48.752;9.088;2023-12-14T13:20:40;0.77;;;0.70;;
8183;SDS011;4133;48.752;9.088;2023-12-14T13:23:06;0.70;;;0.70;;
8183;SDS011;4133;48.752;9.088;2023-12-14T13:25:32;0.80;;;0.80;;
8183;SDS011;4133;48.752;9.088;2023-12-14T13:27:58;1.53;;;0.87;;
8183;SDS011;4133;48.752;9.088;2023-12-14T13:30:24;0.97;;;0.97;;
8183;SDS011;4133;48.752;9.088;2023-12-14T13:32:51;1.27;;;0.83;;
8183;SDS011;4133;48.752;9.088;2023-12-14T13:35:18;1.20;;;1.10;;
8183;SDS011;4133;48.752;9.088;2023-12-14T13:37:44;2.50;;;1.10;;
8183;SDS011;4133;48.752;9.088;2023-12-14T13:40:11;1.30;;;1.20;;
8183;SDS011;4133;48.752;9.088;2023-12-14T13:42:38;1.40;;;1.30;;
8183;SDS011;4133;48.752;9.088;2023-12-14T13:45:04;1.30;;;1.20;;
8183;SDS011;4133;48.752;9.088;2023-12-14T13:47:30;1.50;;;1.40;;
8183;SDS011;4133;48.752;9.088;2023-12-14T13:49:56;1.97;;;1.30;;
8183;SDS011;4133;48.752;9.088;2023-12-14T13:52:22;1.23;;;1.13;;
8183;SDS011;4133;48.752;9.088;2023-12-14T13:54:48;1.90;;;1.60;;
8183;SDS011;4133;48.752;9.088;2023-12-14T13:57:14;1.53;;;1.43;;
8183;SDS011;4133;48.752;9.088;2023-12-14T13:59:40;2.13;;;1.80;;
8183;SDS011;4133;48.752;9.088;2023-12-14T14:02:06;2.17;;;1.57;;
8183;SDS011;4133;48.752;9.088;2023-12-14T14:04:32;2.00;;;1.80;;
8183;SDS011;4133;48.752;9.088;2023-12-14T14:06:58;1.70;;;1.40;;
8183;SDS011;4133;48.752;9.088;2023-12-14T14:09:24;1.93;;;1.73;;
8183;SDS011;4133;48.752;9.088;2023-12-14T14:11:50;2.13;;;1.77;;
8183;SDS011;4133;48.752;9.088;2023-12-14T14:14:16;1.97;;;1.87;;
8183;SDS011;4133;48.752;9.088;2023-12-14T14:16:42;1.73;;;1.50;;
8183;SDS011;4133;48.752;9.088;2023-12-14T14:19:08;2.10;;;1.90;;
8183;SDS011;4133;48.752;9.088;2023-12-14T14:21:34;2.03;;;1.83;;
8183;SDS011;4133;48.752;9.088;2023-12-14T14:24:00;1.80;;;1.70;;
8183;SDS011;4133;48.752;9.088;2023-12-14T14:26:26;4.57;;;2.30;;
8183;SDS011;4133;48.752;9.088;2023-12-14T14:28:52;2.30;;;2.10;;
8183;SDS011;4133;48.752;9.088;2023-12-14T14:31:20;2.63;;;2.10;;
8183;SDS011;4133;48.752;9.088;2023-12-14T14:33:46;3.93;;;1.90;;
8183;SDS011;4133;48.752;9.088;2023-12-14T14:36:13;3.57;;;2.03;;
8183;SDS011;4133;48.752;9.088;2023-12-14T14:38:39;2.27;;;2.07;;
8183;SDS011;4133;48.752;9.088;2023-12-14T14:41:05;2.50;;;2.30;;
8183;SDS011;4133;48.752;9.088;2023-12-14T14:43:31;2.97;;;2.40;;
8183;SDS011;4133;48.752;9.088;2023-12-14T14:45:57;2.43;;;2.13;;
8183;SDS011;4133;48.752;9.088;2023-12-14T14:48:23;2.20;;;2.00;;
8183;SDS011;4133;48.752;9.088;2023-12-14T14:50:50;2.80;;;2.40;;
8183;SDS011;4133;48.752;9.088;2023-12-14T14:53:18;3.00;;;2.70;;
8183;SDS011;4133;48.752;9.088;2023-12-14T14:55:44;3.07;;;2.77;;
8183;SDS011;4133;48.752;9.088;2023-12-14T14:58:10;3.70;;;2.53;;
8183;SDS011;4133;48.752;9.088;2023-12-14T15:00:36;3.00;;;2.50;;
8183;SDS011;4133;48.752;9.088;2023-12-14T15:03:04;3.50;;;2.83;;
8183;SDS011;4133;48.752;9.088;2023-12-14T15:05:33;3.27;;;2.73;;
8183;SDS011;4133;48.752;9.088;2023-12-14T15:07:59;3.17;;;2.40;;
8183;SDS011;4133;48.752;9.088;2023-12-14T15:10:28;2.90;;;2.60;;
8183;SDS011;4133;48.752;9.088;2023-12-14T15:12:54;2.67;;;2.40;;
8183;SDS011;4133;48.752;9.088;2023-12-14T15:15:20;3.80;;;2.93;;